Time;durP1;ratioP1;P1;durP2;ratioP2;P2;SDS_P1;SDS_P2;PMS_P1;PMS_P2;Temp;Humidity;BMP_temperature;BMP_pressure;BME280_temperature;BME280_humidity;BME280_pressure;Samples;Min_cycle;Max_cycle;Signal;HPM_P1;HPM_P2
2023/06/02 00:01:21;;;;;;;10.48;1.60;;;;;;;;;;5031458;28;20858;-79
2023/06/02 00:03:48;;;;;;;12.23;2.00;;;;;;;;;;5027854;28;20108;-74
2023/06/02 00:06:14;;;;;;;10.82;1.73;;;;;;;;;;5026484;28;20128;-73
2023/06/02 00:08:40;;;;;;;8.95;1.90;;;;;;;;;;5033845;28;20252;-73
2023/06/02 00:11:09;;;;;;;12.88;1.75;;;10.30;91.20;;;;;;5029268;28;20049;-76
2023/06/02 00:13:38;;;;;;;20.27;3.03;;;;;;;;;;5036090;28;20557;-82
2023/06/02 00:16:06;;;;;;;11.35;1.63;;;;;;;;;;5029625;28;20444;-75
2023/06/02 00:18:37;;;;;;;15.77;3.35;;;10.30;91.10;;;;;;5028599;28;20079;-76
2023/06/02 00:21:08;;;;;;;14.23;2.38;;;10.20;91.00;;;;;;5034181;28;20401;-76
2023/06/02 00:23:34;;;;;;;12.48;1.38;;;;;;;;;;5031816;28;20041;-75
2023/06/02 00:26:00;;;;;;;14.60;2.58;;;10.20;91.00;;;;;;5034531;28;20081;-80
2023/06/02 00:28:27;;;;;;;16.58;1.95;;;;;;;;;;5030086;28;20156;-76
2023/06/02 00:30:53;;;;;;;13.23;2.03;;;;;;;;;;5031129;28;20053;-71
2023/06/02 00:33:19;;;;;;;11.88;2.30;;;;;;;;;;5030807;28;20053;-80
2023/06/02 00:35:46;;;;;;;15.18;1.88;;;;;;;;;;5032740;28;20056;-81
2023/06/02 00:38:12;;;;;;;13.70;2.13;;;;;;;;;;5034409;28;20115;-76
2023/06/02 00:40:38;;;;;;;8.98;2.05;;;9.70;91.50;;;;;;5034514;28;20123;-77
2023/06/02 00:43:04;;;;;;;11.73;1.95;;;;;;;;;;5033867;28;20045;-78
2023/06/02 00:45:32;;;;;;;13.00;1.92;;;;;;;;;;5033989;28;20041;-74
2023/06/02 00:48:01;;;;;;;12.05;1.33;;;;;;;;;;5034591;28;20052;-74
2023/06/02 00:50:27;;;;;;;11.77;1.58;;;6.70;91.10;;;;;;5033331;28;20056;-74
2023/06/02 00:52:57;;;;;;;15.27;1.65;;;9.30;91.90;;;;;;5034598;28;20092;-76
2023/06/02 00:55:23;;;;;;;12.77;2.08;;;;;;;;;;5033291;28;20804;-78
2023/06/02 00:57:53;;;;;;;13.68;1.92;;;;;;;;;;5033709;28;20138;-74
2023/06/02 01:00:20;;;;;;;17.95;2.42;;;9.10;92.40;;;;;;5032650;28;20045;-74
2023/06/02 01:02:46;;;;;;;13.20;2.50;;;;;;;;;;5031358;28;20763;-73
2023/06/02 01:05:14;;;;;;;15.82;2.15;;;9.10;92.70;;;;;;5033444;28;20037;-74
2023/06/02 01:07:44;;;;;;;17.13;4.05;;;10.10;93.10;;;;;;5034856;28;20045;-75
2023/06/02 01:10:13;;;;;;;17.02;3.03;;;9.10;93.10;;;;;;5032417;28;20069;-80
2023/06/02 01:12:39;;;;;;;10.35;1.75;;;9.00;96.70;;;;;;5045630;28;20138;-73
2023/06/02 01:15:06;;;;;;;11.48;2.47;;;;;;;;;;5025851;28;20151;-79
2023/06/02 01:17:35;;;;;;;12.32;1.58;;;9.20;96.20;;;;;;5025900;28;20096;-73
2023/06/02 01:20:04;;;;;;;17.65;2.33;;;9.10;93.50;;;;;;5032053;28;20821;-77
2023/06/02 01:22:51;;;;;;;8.50;2.00;;;9.10;93.60;;;;;;5034149;28;20052;-78
2023/06/02 01:25:21;;;;;;;8.50;1.52;;;9.10;93.60;;;;;;5031239;28;20041;-72
2023/06/02 01:27:48;;;;;;;13.68;2.67;;;;;;;;;;5034838;28;20049;-73
2023/06/02 01:30:14;;;;;;;14.93;2.10;;;9.30;97.40;;;;;;5034090;28;20450;-71
2023/06/02 01:32:56;;;;;;;14.73;2.42;;;9.10;93.80;;;;;;5012513;28;20056;-73
2023/06/02 01:35:27;;;;;;;18.05;1.50;;;9.10;93.90;;;;;;5049638;28;20053;-80
2023/06/02 01:37:58;;;;;;;12.57;2.00;;;9.20;93.90;;;;;;5004924;28;20067;-76
2023/06/02 01:40:25;;;;;;;14.45;1.90;;;9.20;94.20;;;;;;5033850;28;20513;-74
2023/06/02 01:42:54;;;;;;;13.40;1.67;;;9.20;94.20;;;;;;5027887;28;20060;-73
2023/06/02 01:45:21;;;;;;;15.93;2.40;;;9.30;98.10;;;;;;5034078;28;20518;-73
2023/06/02 01:47:47;;;;;;;13.05;2.05;;;9.10;94.10;;;;;;5033177;28;20076;-82
2023/06/02 01:50:15;;;;;;;14.20;3.08;;;9.30;94.50;;;;;;5033800;28;20461;-81
2023/06/02 01:52:41;;;;;;;15.00;2.80;;;9.10;97.90;;;;;;5034167;28;20071;-72
2023/06/02 01:55:07;;;;;;;15.98;2.35;;;9.70;98.40;;;;;;5033506;28;20778;-73
2023/06/02 01:57:34;;;;;;;15.82;2.13;;;9.30;94.60;;;;;;5033418;28;20049;-79
2023/06/02 02:00:01;;;;;;;9.57;2.30;;;9.30;97.90;;;;;;5033739;28;20138;-81
2023/06/02 02:02:27;;;;;;;10.75;1.65;;;;;;;;;;5034309;28;20049;-73
2023/06/02 02:04:53;;;;;;;15.68;2.17;;;9.40;98.00;;;;;;5033751;28;20051;-71
2023/06/02 02:07:19;;;;;;;14.95;1.85;;;;;;;;;;5033589;28;20052;-79
2023/06/02 02:09:46;;;;;;;15.70;2.15;;;9.50;94.30;;;;;;5033348;28;20122;-76
2023/06/02 02:12:13;;;;;;;19.45;2.08;;;;;;;;;;5037353;28;20057;-74
2023/06/02 02:14:39;;;;;;;15.05;2.88;;;;;;;;;;5034544;28;20071;-73
2023/06/02 02:17:05;;;;;;;11.95;1.35;;;;;;;;;;5033655;28;20182;-79
2023/06/02 02:19:31;;;;;;;15.93;2.60;;;;;;;;;;5034280;28;20052;-77
2023/06/02 02:21:58;;;;;;;14.23;1.85;;;9.60;94.50;;;;;;5034758;28;20049;-76
2023/06/02 02:24:24;;;;;;;11.13;2.10;;;;;;;;;;5031855;28;20091;-74
2023/06/02 02:26:50;;;;;;;21.27;2.92;;;;;;;;;;5025944;28;20867;-70
2023/06/02 02:29:16;;;;;;;12.23;1.60;;;;;;;;;;5032816;28;20664;-81
2023/06/02 02:31:43;;;;;;;11.07;2.80;;;;;;;;;;5032325;28;20053;-82
2023/06/02 02:34:10;;;;;;;14.88;1.48;;;;;;;;;;5033165;28;20135;-79
2023/06/02 02:36:39;;;;;;;14.88;2.17;;;;;;;;;;5033918;28;20083;-80
2023/06/02 02:39:06;;;;;;;16.67;1.65;;;;;;;;;;5033561;28;20697;-75
2023/06/02 02:41:33;;;;;;;12.43;1.55;;;9.70;94.50;;;;;;5033631;28;20147;-75
2023/06/02 02:43:59;;;;;;;12.18;1.92;;;;;;;;;;5033473;28;20346;-73
2023/06/02 02:46:25;;;;;;;10.98;1.58;;;;;;;;;;5033149;28;20072;-69
2023/06/02 02:48:51;;;;;;;16.40;2.88;;;9.80;98.50;;;;;;5033239;28;20055;-72
2023/06/02 02:51:17;;;;;;;11.55;1.40;;;;;;;;;;5032670;28;20060;-74
2023/06/02 02:53:43;;;;;;;13.63;3.08;;;;;;;;;;5033238;28;20056;-72
2023/06/02 02:56:09;;;;;;;13.57;1.23;;;;;;;;;;5033225;28;20037;-77
2023/06/02 02:58:36;;;;;;;16.17;2.60;;;;;;;;;;5032663;28;20048;-78
2023/06/02 03:01:08;;;;;;;11.38;2.03;;;9.80;94.80;;;;;;5032418;28;20049;-77
2023/06/02 03:03:34;;;;;;;13.05;2.13;;;10.10;98.00;;;;;;5032878;28;20102;-75
2023/06/02 03:06:01;;;;;;;12.88;1.45;;;9.90;98.40;;;;;;5032037;28;20044;-76
2023/06/02 03:08:27;;;;;;;15.57;2.75;;;10.10;98.20;;;;;;5033849;28;20041;-75
2023/06/02 03:10:54;;;;;;;15.73;1.40;;;9.90;98.50;;;;;;5032593;28;20052;-74
2023/06/02 03:13:19;;;;;;;12.20;1.92;;;9.90;95.40;;;;;;5034382;28;20088;-76
2023/06/02 03:15:45;;;;;;;12.18;1.50;;;9.90;95.50;;;;;;5033600;28;20096;-78
2023/06/02 03:18:12;;;;;;;12.68;2.45;;;9.90;95.50;;;;;;5026938;28;20041;-77
2023/06/02 03:20:41;;;;;;;16.73;2.33;;;9.90;95.20;;;;;;5032031;28;20069;-74
2023/06/02 03:23:09;;;;;;;18.90;3.17;;;;;;;;;;5033652;28;20060;-79
2023/06/02 03:25:35;;;;;;;20.73;2.35;;;9.90;95.30;;;;;;5032851;28;20056;-78
2023/06/02 03:28:02;;;;;;;11.30;1.58;;;;;;;;;;5025552;28;20080;-80
2023/06/02 03:30:28;;;;;;;13.57;2.05;;;;;;;;;;5030892;28;20044;-75
2023/06/02 03:32:54;;;;;;;15.18;2.97;;;10.00;99.10;;;;;;5032072;28;20120;-74
2023/06/02 03:35:20;;;;;;;13.35;1.65;;;10.10;99.20;;;;;;5029769;28;20114;-76
2023/06/02 03:37:46;;;;;;;17.08;1.73;;;10.00;95.90;;;;;;5028013;28;20049;-80
2023/06/02 03:40:12;;;;;;;10.60;1.52;;;10.00;95.90;;;;;;5032071;28;20060;-80
2023/06/02 03:42:38;;;;;;;15.07;1.75;;;10.00;95.90;;;;;;5035266;28;20053;-77
2023/06/02 03:45:04;;;;;;;13.48;1.50;;;10.00;96.00;;;;;;5035860;28;20048;-80
2023/06/02 03:47:30;;;;;;;16.58;3.30;;;10.10;96.00;;;;;;5035776;28;20049;-79
2023/06/02 03:49:56;;;;;;;12.95;2.05;;;11.50;96.40;;;;;;5035450;28;20053;-75
2023/06/02 03:52:24;;;;;;;19.08;4.22;;;10.10;96.20;;;;;;5034646;28;20823;-80
2023/06/02 03:54:50;;;;;;;11.52;2.80;;;9.90;99.50;;;;;;5028771;28;20661;-75
2023/06/02 03:57:16;;;;;;;18.20;3.05;;;10.30;99.60;;;;;;5035497;28;20127;-80
2023/06/02 03:59:42;;;;;;;20.27;2.60;;;10.30;99.60;;;;;;5029468;28;20158;-76
2023/06/02 04:02:08;;;;;;;9.93;1.63;;;10.30;99.40;;;;;;5034110;28;20037;-80
2023/06/02 04:04:33;;;;;;;16.25;2.00;;;10.40;96.40;;;;;;5022940;28;20126;-72
2023/06/02 04:06:59;;;;;;;13.52;2.72;;;10.30;96.40;;;;;;5015071;28;20049;-75
2023/06/02 04:09:25;;;;;;;17.88;2.50;;;10.30;96.50;;;;;;5024994;28;20085;-77
2023/06/02 04:11:51;;;;;;;20.13;2.65;;;10.30;96.50;;;;;;5035772;28;20593;-77
2023/06/02 04:14:17;;;;;;;14.93;1.67;;;10.40;96.60;;;;;;5013066;28;20080;-72
2023/06/02 04:16:42;;;;;;;10.27;1.30;;;10.10;99.80;;;;;;5029292;28;20495;-74
2023/06/02 04:19:08;;;;;;;17.77;2.45;;;10.40;96.70;;;;;;5014162;28;20570;-76
2023/06/02 04:21:34;;;;;;;12.85;2.05;;;10.50;97.00;;;;;;5029465;28;20061;-80
2023/06/02 04:24:00;;;;;;;14.88;2.05;;;10.50;96.70;;;;;;5029961;28;20110;-76
2023/06/02 04:26:26;;;;;;;16.90;1.65;;;10.50;96.80;;;;;;5023718;28;20045;-77
2023/06/02 04:28:52;;;;;;;19.05;3.22;;;10.60;96.80;;;;;;5034195;28;20044;-75
2023/06/02 04:31:26;;;;;;;15.63;2.22;;;10.60;96.80;;;;;;5034651;28;20460;-79
2023/06/02 04:33:55;;;;;;;14.23;1.83;;;10.60;96.80;;;;;;5035847;28;20076;-80
2023/06/02 04:36:21;;;;;;;14.27;3.25;;;10.70;96.80;;;;;;5035447;28;20052;-77
2023/06/02 04:38:48;;;;;;;18.33;2.28;;;10.70;96.80;;;;;;5036202;28;20057;-79
2023/06/02 04:41:14;;;;;;;21.60;2.20;;;10.80;96.80;;;;;;5036834;28;20056;-74
2023/06/02 04:43:42;;;;;;;14.80;1.70;;;10.80;96.90;;;;;;5037134;28;20051;-77
2023/06/02 04:46:07;;;;;;;18.98;3.22;;;10.90;96.80;;;;;;5036749;28;20057;-76
2023/06/02 04:48:33;;;;;;;20.98;3.75;;;11.00;99.90;;;;;;5036628;28;20115;-73
2023/06/02 04:50:59;;;;;;;12.07;1.85;;;11.00;96.80;;;;;;5036080;28;20056;-76
2023/06/02 04:53:25;;;;;;;19.10;2.85;;;11.00;96.90;;;;;;5035654;28;20091;-74
2023/06/02 04:55:51;;;;;;;19.73;2.03;;;11.00;99.90;;;;;;5036414;28;20053;-76
2023/06/02 04:58:16;;;;;;;21.15;3.45;;;11.10;99.90;;;;;;5035583;28;20045;-73
2023/06/02 05:00:42;;;;;;;19.90;1.88;;;11.10;96.90;;;;;;5035902;28;20048;-79
2023/06/02 05:03:08;;;;;;;16.75;1.60;;;11.20;96.80;;;;;;5036578;28;20171;-79
2023/06/02 05:05:34;;;;;;;14.90;2.28;;;11.30;99.90;;;;;;5035460;28;20273;-80
2023/06/02 05:08:00;;;;;;;17.35;3.63;;;11.20;96.80;;;;;;5034248;28;20601;-72
2023/06/02 05:10:25;;;;;;;16.48;1.98;;;11.50;99.20;;;;;;5035123;28;20056;-73
2023/06/02 05:12:53;;;;;;;19.40;2.72;;;11.30;96.70;;;;;;5034969;28;20100;-76
2023/06/02 05:15:19;;;;;;;16.08;1.63;;;11.40;96.80;;;;;;5035061;28;20831;-79
2023/06/02 05:17:45;;;;;;;16.80;2.00;;;11.50;96.80;;;;;;5018022;28;20053;-80
2023/06/02 05:20:11;;;;;;;14.77;2.13;;;11.60;96.90;;;;;;5034351;28;20037;-73
2023/06/02 05:22:38;;;;;;;13.30;2.28;;;11.80;99.70;;;;;;5018031;28;20119;-74
2023/06/02 05:25:04;;;;;;;15.00;2.58;;;11.70;96.70;;;;;;5034777;28;20048;-75
2023/06/02 05:27:30;;;;;;;14.95;1.98;;;11.80;96.60;;;;;;5034947;28;20064;-81
2023/06/02 05:29:56;;;;;;;14.95;3.20;;;11.90;96.70;;;;;;5033003;28;20057;-79
2023/06/02 05:32:24;;;;;;;21.75;2.92;;;11.90;96.60;;;;;;5017019;28;20583;-81
2023/06/02 05:34:51;;;;;;;22.05;3.22;;;12.00;96.60;;;;;;5033580;28;20053;-75
2023/06/02 05:37:20;;;;;;;20.10;3.25;;;12.20;99.40;;;;;;5029258;28;20139;-79
2023/06/02 05:39:46;;;;;;;13.18;2.65;;;12.10;96.50;;;;;;5028957;28;20087;-73
2023/06/02 05:42:12;;;;;;;17.08;2.53;;;12.10;96.50;;;;;;5036303;28;20052;-74
2023/06/02 05:44:38;;;;;;;12.80;1.85;;;12.20;96.50;;;;;;5036496;28;20095;-74
2023/06/02 05:47:04;;;;;;;20.50;2.55;;;12.20;96.40;;;;;;5047222;28;20087;-71
2023/06/02 05:49:30;;;;;;;20.85;2.70;;;12.30;96.30;;;;;;5034770;28;20064;-71
2023/06/02 05:51:55;;;;;;;19.52;2.40;;;12.50;99.00;;;;;;5035552;28;20052;-74
2023/06/02 05:54:21;;;;;;;23.13;2.70;;;12.40;96.20;;;;;;5018811;28;20052;-78
2023/06/02 05:56:47;;;;;;;18.80;4.45;;;12.50;96.20;;;;;;5035747;28;20044;-76
2023/06/02 05:59:13;;;;;;;17.30;2.58;;;12.60;96.10;;;;;;5034812;28;20056;-72
2023/06/02 06:01:38;;;;;;;18.50;2.50;;;12.70;96.10;;;;;;5033963;28;20053;-75
2023/06/02 06:04:05;;;;;;;18.83;2.65;;;12.70;96.00;;;;;;5033809;28;20044;-77
2023/06/02 06:06:31;;;;;;;16.27;3.03;;;12.80;96.00;;;;;;5033534;28;20049;-82
2023/06/02 06:08:58;;;;;;;18.42;2.22;;;12.90;96.00;;;;;;5026955;28;20052;-78
2023/06/02 06:11:24;;;;;;;25.83;4.20;;;13.20;98.70;;;;;;5016565;28;20163;-76
2023/06/02 06:13:50;;;;;;;16.88;3.85;;;12.90;95.80;;;;;;5032891;28;20516;-81
2023/06/02 06:16:16;;;;;;;20.45;3.08;;;13.20;95.70;;;;;;5036277;28;20057;-81
2023/06/02 06:18:42;;;;;;;18.25;2.75;;;13.30;95.60;;;;;;5050179;28;20502;-79
2023/06/02 06:21:08;;;;;;;15.80;2.65;;;13.40;95.50;;;;;;5021050;28;20044;-82
2023/06/02 06:23:34;;;;;;;22.42;3.58;;;13.40;95.80;;;;;;5034331;28;20049;-74
2023/06/02 06:26:00;;;;;;;23.00;3.15;;;13.60;95.60;;;;;;5034411;28;20064;-83
2023/06/02 06:28:27;;;;;;;21.75;4.10;;;13.60;95.40;;;;;;5032170;28;20091;-74
2023/06/02 06:30:53;;;;;;;15.98;3.25;;;13.90;98.00;;;;;;5030396;28;20120;-75
2023/06/02 06:33:19;;;;;;;22.25;3.00;;;13.80;95.30;;;;;;5032098;28;20053;-75
2023/06/02 06:35:45;;;;;;;20.35;3.53;;;13.90;95.20;;;;;;5038388;28;20100;-77
2023/06/02 06:38:11;;;;;;;18.95;3.88;;;12.30;94.60;;;;;;5027518;28;20127;-73
2023/06/02 06:40:37;;;;;;;18.85;3.05;;;14.20;94.90;;;;;;5032555;28;20059;-75
2023/06/02 06:43:03;;;;;;;22.50;3.63;;;14.40;94.70;;;;;;5028798;28;20057;-80
2023/06/02 06:45:29;;;;;;;21.42;3.63;;;14.90;97.20;;;;;;5021233;28;20061;-75
2023/06/02 06:47:56;;;;;;;14.70;3.05;;;14.60;94.40;;;;;;5022555;28;20064;-76
2023/06/02 06:50:25;;;;;;;20.55;3.70;;;14.70;94.30;;;;;;5043598;28;20053;-80
2023/06/02 06:52:51;;;;;;;21.88;3.55;;;15.00;94.20;;;;;;5027967;28;20499;-79
2023/06/02 06:55:17;;;;;;;26.15;3.58;;;15.20;94.00;;;;;;5029080;28;20048;-78
2023/06/02 06:57:43;;;;;;;16.58;3.13;;;15.50;93.80;;;;;;5012334;28;20075;-76
2023/06/02 07:00:09;;;;;;;20.38;3.35;;;15.80;93.50;;;;;;5031640;28;20048;-74
2023/06/02 07:02:35;;;;;;;20.92;4.03;;;16.00;93.30;;;;;;5015532;28;20059;-80
2023/06/02 07:05:00;;;;;;;21.85;4.43;;;16.30;92.90;;;;;;5031353;28;20494;-76
2023/06/02 07:07:26;;;;;;;20.17;3.92;;;16.40;92.60;;;;;;5030364;28;20076;-78
2023/06/02 07:09:53;;;;;;;17.00;4.38;;;16.60;92.30;;;;;;5031068;28;20075;-81
2023/06/02 07:12:19;;;;;;;16.02;3.42;;;17.80;94.20;;;;;;5031547;28;20045;-80
2023/06/02 07:14:45;;;;;;;21.38;4.60;;;17.60;91.50;;;;;;5031280;28;20071;-75
2023/06/02 07:17:10;;;;;;;20.90;4.70;;;19.20;90.00;;;;;;5029268;28;20184;-79
2023/06/02 07:19:36;;;;;;;21.73;4.40;;;19.30;88.60;;;;;;5030768;28;20513;-78
2023/06/02 07:22:02;;;;;;;19.23;3.72;;;20.10;86.60;;;;;;5014965;28;20057;-80
2023/06/02 07:24:28;;;;;;;14.23;2.90;;;21.10;85.00;;;;;;5014908;28;20440;-73
2023/06/02 07:26:55;;;;;;;14.45;2.65;;;21.70;82.30;;;;;;5030902;28;20625;-74
2023/06/02 07:29:21;;;;;;;13.68;3.03;;;23.60;78.70;;;;;;5028780;28;20612;-77
2023/06/02 07:31:46;;;;;;;16.02;3.05;;;26.20;75.40;;;;;;5029451;28;20490;-77
2023/06/02 07:34:12;;;;;;;16.88;3.78;;;26.80;70.10;;;;;;5032387;28;20056;-80
2023/06/02 07:36:38;;;;;;;10.43;2.72;;;28.50;65.80;;;;;;5014625;28;20049;-78
2023/06/02 07:39:04;;;;;;;16.80;3.10;;;30.00;63.80;;;;;;5031626;28;20056;-78
2023/06/02 07:41:30;;;;;;;9.43;3.00;;;30.90;59.90;;;;;;5020175;28;20047;-73
2023/06/02 07:43:58;;;;;;;11.90;2.17;;;30.80;57.70;;;;;;5031207;28;20059;-75
2023/06/02 07:46:24;;;;;;;11.55;2.35;;;31.50;56.10;;;;;;5010204;28;20252;-80
2023/06/02 07:48:50;;;;;;;15.10;2.88;;;32.10;55.20;;;;;;5025018;28;20481;-76
2023/06/02 07:51:16;;;;;;;14.88;2.80;;;31.70;53.00;;;;;;5002042;28;20617;-79
2023/06/02 07:53:42;;;;;;;10.43;2.30;;;32.50;51.60;;;;;;5027763;28;20083;-77
2023/06/02 07:56:09;;;;;;;11.32;2.50;;;33.30;50.10;;;;;;5010127;28;20502;-79
2023/06/02 07:58:35;;;;;;;9.85;1.92;;;33.70;48.50;;;;;;4998672;28;20190;-73
2023/06/02 08:01:02;;;;;;;12.30;2.97;;;33.90;47.60;;;;;;5013198;28;20144;-80
2023/06/02 08:03:28;;;;;;;13.80;2.40;;;33.40;46.80;;;;;;5012998;28;20068;-76
2023/06/02 08:05:54;;;;;;;18.50;3.22;;;33.50;47.60;;;;;;4997480;28;20053;-77
2023/06/02 08:08:20;;;;;;;11.18;2.50;;;33.30;47.20;;;;;;4999983;28;20085;-82
2023/06/02 08:10:50;;;;;;;14.43;2.22;;;34.10;47.20;;;;;;5013919;28;20056;-77
2023/06/02 08:13:16;;;;;;;9.73;1.80;;;35.20;45.40;;;;;;4994521;28;21235;-80
2023/06/02 08:15:42;;;;;;;11.15;1.75;;;35.20;45.30;;;;;;5012381;28;20049;-81
2023/06/02 08:18:14;;;;;;;11.38;2.25;;;34.10;44.50;;;;;;4997498;28;20063;-76
2023/06/02 08:21:04;;;;;;;10.45;2.63;;;33.50;44.40;;;;;;4955375;28;20058;-76
2023/06/02 08:23:32;;;;;;;10.85;2.03;;;33.50;46.00;;;;;;4961067;28;20562;-78
2023/06/02 08:25:59;;;;;;;10.13;2.45;;;33.10;46.30;;;;;;4973724;28;20097;-78
2023/06/02 08:28:27;;;;;;;9.38;1.83;;;32.30;46.10;;;;;;4952583;28;20073;-77
2023/06/02 08:30:58;;;;;;;9.20;1.65;;;32.50;45.80;;;;;;4957810;28;20057;-76
2023/06/02 08:33:25;;;;;;;9.23;2.00;;;33.30;44.60;;;;;;4966324;28;20097;-80
2023/06/02 08:35:52;;;;;;;11.15;1.90;;;33.50;43.40;;;;;;4951152;28;20145;-81
2023/06/02 08:38:18;;;;;;;11.38;1.63;;;33.70;43.80;;;;;;4969937;28;20051;-79
2023/06/02 08:40:47;;;;;;;6.68;1.15;;;33.90;43.40;;;;;;4962034;28;20065;-78
2023/06/02 08:43:14;;;;;;;9.88;1.65;;;34.30;44.00;;;;;;4950162;28;20050;-80
2023/06/02 08:45:43;;;;;;;8.55;1.98;;;34.40;42.50;;;;;;4989900;28;20053;-78
2023/06/02 08:48:16;;;;;;;12.55;1.27;;;34.20;42.00;;;;;;4979585;28;20057;-73
2023/06/02 08:50:48;;;;;;;11.75;1.83;;;34.40;41.80;;;;;;4978248;28;20092;-74
2023/06/02 08:53:18;;;;;;;12.07;1.58;;;34.30;41.20;;;;;;5017739;28;20060;-80
2023/06/02 08:55:47;;;;;;;8.80;1.63;;;34.50;40.80;;;;;;5018495;28;20076;-76
2023/06/02 08:58:12;;;;;;;7.47;1.45;;;34.90;41.20;;;;;;5035078;28;20530;-76
2023/06/02 09:00:39;;;;;;;7.88;1.13;;;35.20;39.80;;;;;;5038206;28;20138;-77
2023/06/02 09:03:05;;;;;;;6.28;1.00;;;35.10;40.70;;;;;;5036509;28;20053;-76
2023/06/02 09:05:32;;;;;;;9.50;1.25;;;34.20;41.00;;;;;;5035986;28;20519;-83
2023/06/02 09:08:12;;;;;;;8.40;1.15;;;33.60;40.40;;;;;;5035862;28;20075;-74
2023/06/02 09:10:42;;;;;;;7.53;0.98;;;33.20;39.60;;;;;;5018283;28;20057;-76
2023/06/02 09:13:29;;;;;;;6.65;1.27;;;32.80;39.90;;;;;;5018852;28;20130;-75
2023/06/02 09:15:57;;;;;;;7.00;1.00;;;32.70;39.60;;;;;;5035919;28;20064;-73
2023/06/02 09:18:23;;;;;;;6.63;1.00;;;32.40;39.90;;;;;;5034786;28;20071;-76
2023/06/02 09:20:50;;;;;;;9.23;1.23;;;31.80;39.30;;;;;;5033851;28;20045;-73
2023/06/02 09:23:17;;;;;;;7.82;1.58;;;32.00;39.90;;;;;;5018157;28;20059;-75
2023/06/02 09:25:43;;;;;;;6.13;1.20;;;32.20;39.40;;;;;;5035100;28;20053;-77
2023/06/02 09:28:09;;;;;;;6.35;0.90;;;32.30;40.10;;;;;;5034123;28;20053;-75
2023/06/02 09:30:36;;;;;;;7.80;1.42;;;32.50;39.70;;;;;;5010193;28;20103;-78
2023/06/02 09:33:12;;;;;;;5.28;0.95;;;32.50;38.90;;;;;;5014565;28;20052;-76
2023/06/02 09:35:40;;;;;;;3.78;0.70;;;32.50;38.40;;;;;;5016558;28;20052;-73
2023/06/02 09:38:10;;;;;;;6.28;1.45;;;32.60;40.20;;;;;;5028277;28;20478;-80
2023/06/02 09:40:38;;;;;;;6.18;0.75;;;32.50;39.70;;;;;;5028261;28;20077;-76
2023/06/02 09:43:05;;;;;;;6.68;0.73;;;32.80;39.80;;;;;;5033207;28;20044;-75
2023/06/02 09:45:33;;;;;;;4.90;0.63;;;32.90;39.80;;;;;;5005784;28;20521;-75
2023/06/02 09:47:59;;;;;;;7.35;1.00;;;32.80;39.00;;;;;;4995280;28;20531;-75
2023/06/02 09:50:37;;;;;;;6.90;0.93;;;32.90;39.30;;;;;;5032035;28;20076;-77
2023/06/02 09:53:07;;;;;;;6.28;1.02;;;33.10;39.60;;;;;;5013661;28;20049;-79
2023/06/02 09:55:36;;;;;;;4.43;0.75;;;33.40;39.90;;;;;;5030690;28;20049;-78
2023/06/02 09:58:03;;;;;;;3.67;0.70;;;32.70;39.90;;;;;;5031277;28;20940;-78
2023/06/02 10:00:30;;;;;;;4.82;0.65;;;31.90;40.30;;;;;;5032894;28;20404;-79
2023/06/02 10:02:56;;;;;;;5.75;0.60;;;31.70;41.60;;;;;;5033481;28;20151;-78
2023/06/02 10:05:23;;;;;;;5.65;0.50;;;29.90;42.20;;;;;;5033276;28;20776;-74
2023/06/02 10:08:27;;;;;;;6.28;0.85;;;29.30;42.60;;;;;;5032835;28;20068;-75
2023/06/02 10:11:21;;;;;;;4.45;0.70;;;28.30;43.60;;;;;;5009127;28;20651;-78
2023/06/02 10:14:00;;;;;;;5.25;0.80;;;27.20;45.00;;;;;;5028777;28;20049;-74
2023/06/02 10:16:51;;;;;;;5.03;0.60;;;26.50;45.90;;;;;;5027431;28;20142;-74
2023/06/02 10:19:41;;;;;;;5.10;1.48;;;25.90;46.40;;;;;;5014979;28;20245;-74
2023/06/02 10:22:16;;;;;;;1.67;0.30;;;25.50;47.60;;;;;;5022687;28;20447;-73
2023/06/02 10:25:14;;;;;;;3.28;0.85;;;25.30;48.10;;;;;;5015815;28;20060;-74
2023/06/02 10:27:47;;;;;;;3.67;0.57;;;25.60;49.60;;;;;;4966291;28;20064;-74
2023/06/02 10:30:22;;;;;;;2.95;0.35;;;26.70;48.30;;;;;;5028141;28;20053;-78
2023/06/02 10:32:55;;;;;;;5.28;0.88;;;26.80;46.90;;;;;;5029320;28;20059;-80
2023/06/02 10:35:21;;;;;;;5.97;0.98;;;26.20;47.30;;;;;;5033059;28;20080;-72
2023/06/02 10:38:07;;;;;;;3.00;0.50;;;25.70;47.80;;;;;;5015626;28;20063;-74
2023/06/02 10:41:02;;;;;;;4.60;0.40;;;26.20;48.60;;;;;;5032599;28;20083;-72
2023/06/02 10:43:28;;;;;;;2.88;0.70;;;27.30;44.70;;;;;;5022190;28;20064;-74
2023/06/02 10:46:20;;;;;;;3.90;0.40;;;27.70;45.00;;;;;;5026822;28;20056;-71
2023/06/02 10:48:48;;;;;;;4.32;0.38;;;27.30;44.60;;;;;;5033523;28;20041;-73
2023/06/02 10:51:15;;;;;;;3.25;0.50;;;26.30;44.60;;;;;;5014472;28;20052;-73
2023/06/02 10:54:02;;;;;;;3.38;0.40;;;25.40;45.20;;;;;;5015734;28;20059;-73
2023/06/02 10:56:40;;;;;;;2.53;0.50;;;24.50;44.90;;;;;;5032564;28;20045;-75
2023/06/02 10:59:07;;;;;;;3.42;0.40;;;23.80;45.70;;;;;;5010427;28;20205;-75
2023/06/02 11:01:53;;;;;;;1.77;0.50;;;22.90;53.20;;;;;;5016307;28;20053;-73
2023/06/02 11:04:36;;;;;;;5.18;0.45;;;22.90;49.50;;;;;;5032541;28;20053;-78
2023/06/02 11:07:17;;;;;;;2.28;0.60;;;22.60;49.70;;;;;;5032114;28;20049;-75
2023/06/02 11:09:47;;;;;;;3.75;0.45;;;22.20;49.10;;;;;;5031779;28;20057;-74
2023/06/02 11:12:16;;;;;;;1.98;0.25;;;21.90;49.10;;;;;;5015782;28;20542;-77
2023/06/02 11:15:14;;;;;;;7.38;0.95;;;21.60;49.10;;;;;;5031199;28;20908;-73
2023/06/02 11:17:40;;;;;;;3.15;0.63;;;21.40;48.60;;;;;;4984414;28;20064;-82
2023/06/02 11:20:10;;;;;;;5.65;0.60;;;21.20;49.00;;;;;;5048119;28;20140;-80
2023/06/02 11:22:36;;;;;;;1.70;0.30;;;21.10;49.40;;;;;;5030229;28;20731;-78
2023/06/02 11:25:04;;;;;;;2.40;0.30;;;20.70;52.40;;;;;;5031844;28;20110;-77
2023/06/02 11:27:40;;;;;;;2.80;0.82;;;20.80;49.00;;;;;;5032293;28;20576;-73
2023/06/02 11:30:18;;;;;;;3.13;0.30;;;20.70;49.10;;;;;;5031194;28;20047;-78
2023/06/02 11:32:47;;;;;;;1.70;0.73;;;20.60;50.30;;;;;;5027827;28;20083;-74
2023/06/02 11:35:14;;;;;;;2.50;0.75;;;20.60;49.80;;;;;;5011456;28;20052;-77
2023/06/02 11:37:43;;;;;;;3.78;0.38;;;20.40;50.10;;;;;;5031525;28;20072;-77
2023/06/02 11:40:12;;;;;;;2.63;0.30;;;20.50;51.10;;;;;;5026220;28;20075;-76
2023/06/02 11:42:43;;;;;;;3.17;0.40;;;20.50;51.60;;;;;;5030219;28;20044;-75
2023/06/02 11:45:27;;;;;;;4.18;0.47;;;20.50;52.10;;;;;;5028058;28;20057;-72
2023/06/02 11:48:05;;;;;;;3.35;0.63;;;20.40;52.20;;;;;;5008083;28;20052;-75
2023/06/02 11:50:34;;;;;;;2.80;0.35;;;20.40;53.50;;;;;;5031511;28;20331;-83
2023/06/02 11:53:00;;;;;;;2.15;0.60;;;20.50;52.70;;;;;;5030590;28;20057;-76
2023/06/02 11:55:31;;;;;;;4.22;1.13;;;20.50;52.20;;;;;;5013850;28;20052;-77
2023/06/02 11:58:20;;;;;;;2.72;0.43;;;20.60;57.30;;;;;;5030184;28;20071;-79
2023/06/02 12:00:47;;;;;;;5.43;0.98;;;20.80;53.70;;;;;;5046345;28;20080;-76
2023/06/02 12:03:14;;;;;;;2.83;0.60;;;20.90;52.10;;;;;;5032974;28;20601;-75
2023/06/02 12:05:44;;;;;;;3.05;0.57;;;21.00;51.80;;;;;;5035102;28;20059;-77
2023/06/02 12:08:20;;;;;;;4.68;0.45;;;21.10;51.80;;;;;;5018938;28;20064;-77
2023/06/02 12:10:46;;;;;;;4.18;0.60;;;21.20;51.80;;;;;;5018238;28;20510;-75
2023/06/02 12:13:30;;;;;;;3.45;0.38;;;21.30;51.80;;;;;;5034450;28;20052;-78
2023/06/02 12:16:18;;;;;;;2.97;0.60;;;21.60;53.00;;;;;;5029578;28;20053;-76
2023/06/02 12:18:44;;;;;;;2.83;0.45;;;21.80;53.00;;;;;;5036158;28;20084;-75
2023/06/02 12:21:21;;;;;;;3.58;0.55;;;21.90;52.40;;;;;;5017458;28;20299;-75
2023/06/02 12:23:47;;;;;;;3.90;0.65;;;20.10;52.30;;;;;;5035506;28;20116;-77
2023/06/02 12:26:14;;;;;;;5.70;0.55;;;21.70;54.00;;;;;;5035493;28;20127;-72
2023/06/02 12:28:40;;;;;;;2.40;0.80;;;24.70;55.60;;;;;;5034866;28;20659;-80
2023/06/02 12:31:06;;;;;;;3.85;1.05;;;;;;;;;;5034162;28;20052;-73
2023/06/02 12:33:34;;;;;;;6.50;0.77;;;25.20;54.00;;;;;;5021156;28;20099;-77
2023/06/02 12:36:03;;;;;;;5.32;0.43;;;22.20;58.20;;;;;;5007421;28;20053;-74
2023/06/02 12:38:29;;;;;;;6.00;0.70;;;22.40;54.40;;;;;;5029663;28;20050;-75
2023/06/02 12:40:55;;;;;;;4.75;0.63;;;24.60;55.90;;;;;;5046638;28;20087;-77
2023/06/02 12:43:21;;;;;;;3.88;0.75;;;22.50;54.50;;;;;;5034160;28;20052;-78
2023/06/02 12:45:47;;;;;;;3.63;0.75;;;22.50;54.30;;;;;;5024488;28;20049;-76
2023/06/02 12:48:13;;;;;;;4.13;1.10;;;22.60;57.40;;;;;;5016627;28;20068;-75
2023/06/02 12:50:40;;;;;;;5.40;0.60;;;22.50;54.40;;;;;;5032699;28;20051;-79
2023/06/02 12:53:06;;;;;;;5.03;1.85;;;22.40;55.10;;;;;;5029772;28;20049;-75
2023/06/02 12:55:32;;;;;;;11.15;1.60;;;;;;;;;;5008539;28;20080;-74
2023/06/02 12:58:12;;;;;;;5.50;0.77;;;22.20;52.60;;;;;;5029656;28;20091;-81
2023/06/02 13:00:50;;;;;;;3.10;0.50;;;23.10;53.90;;;;;;5011992;28;20053;-78
2023/06/02 13:03:17;;;;;;;3.70;0.60;;;;;;;;;;5025929;28;20048;-75